createdAt,value
2023-03-27T00:02:25.150Z,8.35
2023-03-27T00:04:56.827Z,3.95
2023-03-27T00:07:25.626Z,4.15
2023-03-27T00:09:53.482Z,4.83
2023-03-27T00:12:22.442Z,5.03
2023-03-27T00:14:51.124Z,6.63
2023-03-27T00:17:17.743Z,5.38
2023-03-27T00:19:45.018Z,7.13
2023-03-27T00:22:11.594Z,4.07
2023-03-27T00:24:38.144Z,3.63
2023-03-27T00:27:06.807Z,4.90
2023-03-27T00:29:33.457Z,5.13
2023-03-27T00:32:00.072Z,4.25
2023-03-27T00:34:26.773Z,7.53
2023-03-27T00:36:56.079Z,3.45
2023-03-27T00:39:23.767Z,6.72
2023-03-27T00:41:55.446Z,6.65
2023-03-27T00:44:25.613Z,4.97
2023-03-27T00:46:54.660Z,4.57
2023-03-27T00:49:25.609Z,5.68
2023-03-27T00:51:53.896Z,5.07
2023-03-27T00:54:30.052Z,5.30
2023-03-27T00:57:01.888Z,5.78
2023-03-27T00:59:35.882Z,7.07
2023-03-27T01:02:06.601Z,6.38
2023-03-27T01:04:37.340Z,5.28
2023-03-27T01:07:06.867Z,4.95
2023-03-27T01:09:33.836Z,7.05
2023-03-27T01:12:14.128Z,4.00
2023-03-27T01:14:46.880Z,4.32
2023-03-27T01:17:46.444Z,3.63
2023-03-27T01:20:27.374Z,6.55
2023-03-27T01:23:35.698Z,6.13
2023-03-27T01:26:44.118Z,5.53
2023-03-27T01:29:17.254Z,5.90
2023-03-27T01:32:20.099Z,5.18
2023-03-27T01:35:08.681Z,6.05
2023-03-27T01:37:56.479Z,5.88
2023-03-27T01:40:33.071Z,5.03
2023-03-27T01:43:02.492Z,5.45
2023-03-27T01:45:42.492Z,4.57
2023-03-27T01:48:42.774Z,5.57
2023-03-27T01:51:39.730Z,5.72
2023-03-27T01:54:19.578Z,4.73
2023-03-27T01:57:02.431Z,5.35
2023-03-27T01:59:33.820Z,4.75
2023-03-27T02:02:10.378Z,5.00
2023-03-27T02:04:49.015Z,5.38
2023-03-27T02:07:19.944Z,6.67
2023-03-27T02:09:50.363Z,5.07
2023-03-27T02:12:21.299Z,6.68
2023-03-27T02:14:54.981Z,4.38
2023-03-27T02:17:26.474Z,6.03
2023-03-27T02:19:58.749Z,4.30
2023-03-27T02:22:38.209Z,6.25
2023-03-27T02:25:28.880Z,4.30
2023-03-27T02:28:07.749Z,5.82
2023-03-27T02:31:31.490Z,6.22
2023-03-27T02:34:26.786Z,3.83
2023-03-27T02:37:17.622Z,5.00
2023-03-27T02:40:22.787Z,4.85
2023-03-27T02:43:07.825Z,3.78
2023-03-27T02:45:46.230Z,5.20
2023-03-27T02:48:31.783Z,5.93
2023-03-27T02:51:17.495Z,4.18
2023-03-27T02:53:59.874Z,4.85
2023-03-27T02:56:28.763Z,4.82
2023-03-27T02:59:04.171Z,7.15
2023-03-27T03:01:32.825Z,4.47
2023-03-27T03:04:10.668Z,5.10
2023-03-27T03:06:42.144Z,5.55
2023-03-27T03:09:09.941Z,6.32
2023-03-27T03:11:39.554Z,5.35
2023-03-27T03:14:06.140Z,4.60
2023-03-27T03:16:34.992Z,4.97
2023-03-27T03:19:02.003Z,5.85
2023-03-27T03:21:28.557Z,4.15
2023-03-27T03:23:58.115Z,5.30
2023-03-27T03:26:30.027Z,4.60
2023-03-27T03:29:00.914Z,7.40
2023-03-27T03:31:43.146Z,5.22
2023-03-27T03:34:18.492Z,5.15
2023-03-27T03:36:50.839Z,3.38
2023-03-27T03:39:20.735Z,9.03
2023-03-27T03:41:49.653Z,5.05
2023-03-27T03:44:16.187Z,4.18
2023-03-27T03:46:42.717Z,6.75
2023-03-27T03:49:09.291Z,5.70
2023-03-27T03:51:36.338Z,3.30
2023-03-27T03:54:05.512Z,3.65
2023-03-27T03:56:37.335Z,4.70
2023-03-27T03:59:04.058Z,8.50
2023-03-27T04:01:35.547Z,5.07
2023-03-27T04:04:02.418Z,5.73
2023-03-27T04:06:31.129Z,4.68
2023-03-27T04:08:58.172Z,5.05
2023-03-27T04:11:24.704Z,4.78
2023-03-27T04:13:51.304Z,5.20
2023-03-27T04:16:17.899Z,4.80
2023-03-27T04:18:50.553Z,6.07
2023-03-27T04:21:17.735Z,4.07
2023-03-27T04:23:48.422Z,5.28
2023-03-27T04:26:18.186Z,6.05
2023-03-27T04:28:44.748Z,4.23
2023-03-27T04:31:11.423Z,4.95
2023-03-27T04:33:39.881Z,4.78
2023-03-27T04:36:09.924Z,4.95
2023-03-27T04:38:38.205Z,5.45
2023-03-27T04:41:05.601Z,6.27
2023-03-27T04:43:32.306Z,5.05
2023-03-27T04:46:02.265Z,5.55
2023-03-27T04:48:34.249Z,6.55
2023-03-27T04:51:03.417Z,4.47
2023-03-27T04:53:31.208Z,4.17
2023-03-27T04:55:57.829Z,5.22
2023-03-27T04:58:26.928Z,4.70
2023-03-27T05:00:56.145Z,3.83
2023-03-27T05:03:27.871Z,5.15
2023-03-27T05:05:54.791Z,4.33
2023-03-27T05:08:21.659Z,3.92
2023-03-27T05:10:48.277Z,3.80
2023-03-27T05:13:17.618Z,4.85
2023-03-27T05:15:44.221Z,5.10
2023-03-27T05:18:10.964Z,4.97
2023-03-27T05:20:40.010Z,4.47
2023-03-27T05:23:06.606Z,6.15
2023-03-27T05:25:39.459Z,4.82
2023-03-27T05:28:06.049Z,3.80
2023-03-27T05:30:32.953Z,3.90
2023-03-27T05:32:59.706Z,4.15
2023-03-27T05:35:28.601Z,4.07
2023-03-27T05:37:59.086Z,3.88
2023-03-27T05:40:29.525Z,3.72
2023-03-27T05:42:56.738Z,4.80
2023-03-27T05:45:26.161Z,3.90
2023-03-27T05:47:54.975Z,6.05
2023-03-27T05:50:26.526Z,4.38
2023-03-27T05:53:01.458Z,5.50
2023-03-27T05:55:30.562Z,5.13
2023-03-27T05:57:57.126Z,5.45
2023-03-27T06:00:27.555Z,4.05
2023-03-27T06:02:57.222Z,3.92
2023-03-27T06:05:26.812Z,3.83
2023-03-27T06:07:58.937Z,7.20
2023-03-27T06:10:30.065Z,2.92
2023-03-27T06:13:08.887Z,4.70
2023-03-27T06:15:38.729Z,4.45
2023-03-27T06:18:05.664Z,5.50
2023-03-27T06:20:32.827Z,4.97
2023-03-27T06:23:00.227Z,3.63
2023-03-27T06:25:28.606Z,3.53
2023-03-27T06:27:55.220Z,5.50
2023-03-27T06:30:24.764Z,3.20
2023-03-27T06:32:54.306Z,4.70
2023-03-27T06:35:26.667Z,5.60
2023-03-27T06:37:55.516Z,5.93
2023-03-27T06:40:24.412Z,3.65
2023-03-27T06:43:01.129Z,4.85
2023-03-27T06:45:32.354Z,5.63
2023-03-27T06:48:16.201Z,5.07
2023-03-27T06:50:49.067Z,5.13
2023-03-27T06:55:48.621Z,5.13
2023-03-27T06:58:16.676Z,3.73
2023-03-27T07:00:43.753Z,4.05
2023-03-27T07:03:13.038Z,5.18
2023-03-27T07:05:40.946Z,6.03
2023-03-27T07:08:21.154Z,4.80
2023-03-27T07:11:07.414Z,4.57
2023-03-27T07:13:41.112Z,3.83
2023-03-27T07:16:09.338Z,5.10
2023-03-27T07:18:36.721Z,7.50
2023-03-27T07:21:03.596Z,6.85
2023-03-27T07:23:30.267Z,4.87
2023-03-27T07:26:01.374Z,7.25
2023-03-27T07:28:27.973Z,9.65
2023-03-27T07:30:54.626Z,8.10
2023-03-27T07:33:26.038Z,9.23
2023-03-27T07:35:52.745Z,5.90
2023-03-27T07:38:19.374Z,7.10
2023-03-27T07:40:50.298Z,9.57
2023-03-27T07:43:17.164Z,7.65
2023-03-27T07:45:43.783Z,8.82
2023-03-27T07:48:16.249Z,6.80
2023-03-27T07:50:45.569Z,7.95
2023-03-27T07:53:32.978Z,7.55
2023-03-27T07:56:02.431Z,9.50
2023-03-27T07:58:29.112Z,10.55
2023-03-27T08:01:02.325Z,9.27
2023-03-27T08:03:30.463Z,7.70
2023-03-27T08:05:59.569Z,9.38
2023-03-27T08:08:29.593Z,7.07
2023-03-27T08:10:59.515Z,8.57
2023-03-27T08:13:31.624Z,9.97
2023-03-27T08:16:06.099Z,17.48
2023-03-27T08:18:32.952Z,16.52
2023-03-27T08:21:01.717Z,32.78
2023-03-27T08:23:32.700Z,24.95
2023-03-27T08:26:00.694Z,20.40
2023-03-27T08:28:37.647Z,9.95
2023-03-27T08:31:11.457Z,13.48
2023-03-27T08:33:39.346Z,11.75
2023-03-27T08:36:10.649Z,11.73
2023-03-27T08:38:40.196Z,7.83
2023-03-27T08:41:07.765Z,6.28
2023-03-27T08:43:39.015Z,8.82
2023-03-27T08:46:09.199Z,10.93
2023-03-27T08:48:40.014Z,12.93
2023-03-27T08:51:12.331Z,6.30
2023-03-27T08:53:47.541Z,7.32
2023-03-27T08:56:18.495Z,8.82
2023-03-27T08:58:46.116Z,8.43
2023-03-27T09:01:35.529Z,14.88
2023-03-27T09:04:12.499Z,15.90
2023-03-27T09:06:48.292Z,22.13
2023-03-27T09:09:38.793Z,24.08
2023-03-27T09:12:15.440Z,19.75
2023-03-27T09:14:53.698Z,18.58
2023-03-27T09:17:34.726Z,14.27
2023-03-27T09:20:10.850Z,17.90
2023-03-27T09:22:48.576Z,16.90
2023-03-27T09:25:28.378Z,12.77
2023-03-27T09:27:55.167Z,9.43
2023-03-27T09:30:33.682Z,8.57
2023-03-27T09:33:05.153Z,5.03
2023-03-27T09:35:35.365Z,4.07
2023-03-27T09:38:13.144Z,7.32
2023-03-27T09:40:44.461Z,11.52
2023-03-27T09:43:49.525Z,10.47
2023-03-27T09:46:20.141Z,12.35
2023-03-27T09:48:56.212Z,16.75
2023-03-27T09:51:51.703Z,9.25
2023-03-27T09:54:21.742Z,7.28
2023-03-27T09:56:54.329Z,8.73
2023-03-27T09:59:32.295Z,10.48
2023-03-27T10:02:16.862Z,11.00
2023-03-27T10:05:01.469Z,8.57
2023-03-27T10:07:33.524Z,5.00
2023-03-27T10:10:11.985Z,5.10
2023-03-27T10:12:42.587Z,4.57
2023-03-27T10:15:33.032Z,5.28
2023-03-27T10:18:06.864Z,4.90
2023-03-27T10:20:37.441Z,4.75
2023-03-27T10:23:23.842Z,3.67
2023-03-27T10:25:57.724Z,9.82
2023-03-27T10:28:28.949Z,13.10
2023-03-27T10:31:04.710Z,13.93
2023-03-27T10:33:33.997Z,12.48
2023-03-27T10:36:01.186Z,7.73
2023-03-27T10:38:28.748Z,6.90
2023-03-27T10:40:59.248Z,8.32
2023-03-27T10:43:36.679Z,10.23
2023-03-27T10:46:12.006Z,17.30
2023-03-27T10:48:53.968Z,18.50
2023-03-27T10:51:24.915Z,32.33
2023-03-27T10:53:58.649Z,41.45
2023-03-27T10:57:10.379Z,63.58
2023-03-27T10:59:42.296Z,52.85
2023-03-27T11:02:24.152Z,42.37
2023-03-27T11:05:01.331Z,30.65
2023-03-27T11:07:41.828Z,17.55
2023-03-27T11:10:19.701Z,12.13
2023-03-27T11:12:58.968Z,9.63
2023-03-27T11:15:30.549Z,17.07
2023-03-27T11:18:07.358Z,24.38
2023-03-27T11:20:43.604Z,17.08
2023-03-27T11:23:37.434Z,14.32
2023-03-27T11:26:08.967Z,9.98
2023-03-27T11:28:43.932Z,11.03
2023-03-27T11:31:32.097Z,8.45
2023-03-27T11:34:08.888Z,9.48
2023-03-27T11:36:51.398Z,11.40
2023-03-27T11:39:32.223Z,8.85
2023-03-27T11:42:01.643Z,9.40
2023-03-27T11:44:30.464Z,10.00
2023-03-27T11:47:27.961Z,10.90
2023-03-27T11:50:12.314Z,11.93
2023-03-27T11:53:21.445Z,14.15
2023-03-27T11:56:00.440Z,14.87
2023-03-27T11:58:41.969Z,11.95
2023-03-27T12:01:55.943Z,11.05
2023-03-27T12:04:44.652Z,15.32
2023-03-27T12:10:07.184Z,14.60
2023-03-27T12:12:36.758Z,7.78
2023-03-27T12:15:34.361Z,12.25
2023-03-27T12:18:05.938Z,14.15
2023-03-27T12:20:55.635Z,11.25
2023-03-27T12:23:52.304Z,8.57
2023-03-27T12:26:33.945Z,4.57
2023-03-27T12:29:23.819Z,7.78
2023-03-27T12:31:56.523Z,7.57
2023-03-27T12:35:10.772Z,6.90
2023-03-27T12:37:47.737Z,4.23
2023-03-27T12:40:33.049Z,10.60
2023-03-27T12:43:31.726Z,6.93
2023-03-27T12:46:11.505Z,8.90
2023-03-27T12:49:06.115Z,5.00
2023-03-27T12:51:43.307Z,7.87
2023-03-27T12:54:24.314Z,3.75
2023-03-27T12:57:22.207Z,5.55
2023-03-27T12:59:48.943Z,5.05
2023-03-27T13:02:16.103Z,5.40
2023-03-27T13:04:54.337Z,3.40
2023-03-27T13:07:36.833Z,9.75
2023-03-27T13:10:18.421Z,5.07
2023-03-27T13:12:57.832Z,6.10
2023-03-27T13:15:33.458Z,6.47
2023-03-27T13:18:24.791Z,8.10
2023-03-27T13:21:14.956Z,7.95
2023-03-27T13:24:08.718Z,6.68
2023-03-27T13:27:08.673Z,6.63
2023-03-27T13:29:36.048Z,6.57
2023-03-27T13:32:39.095Z,8.40
2023-03-27T13:35:11.634Z,4.45
2023-03-27T13:37:48.269Z,4.15
2023-03-27T13:40:32.382Z,4.55
2023-03-27T13:43:22.659Z,4.45
2023-03-27T13:45:58.165Z,5.03
2023-03-27T13:48:48.503Z,3.08
2023-03-27T13:52:02.478Z,6.00
2023-03-27T13:55:00.388Z,4.03
2023-03-27T13:57:38.771Z,4.75
2023-03-27T14:00:26.736Z,3.67
2023-03-27T14:03:30.954Z,3.67
2023-03-27T14:06:28.155Z,5.55
2023-03-27T14:09:28.926Z,3.67
2023-03-27T14:12:24.233Z,3.65
2023-03-27T14:15:12.905Z,4.73
2023-03-27T14:18:02.290Z,3.00
2023-03-27T14:20:34.248Z,3.30
2023-03-27T14:23:00.803Z,4.40
2023-03-27T14:25:36.439Z,3.38
2023-03-27T14:28:03.277Z,5.27
2023-03-27T14:30:39.251Z,3.55
2023-03-27T14:33:08.885Z,2.38
2023-03-27T14:35:49.992Z,3.72
2023-03-27T14:38:28.389Z,4.63
2023-03-27T14:40:59.946Z,4.77
2023-03-27T14:43:28.405Z,4.70
2023-03-27T14:46:07.646Z,4.20
2023-03-27T14:48:39.958Z,4.00
2023-03-27T14:51:10.410Z,5.32
2023-03-27T14:53:44.563Z,4.10
2023-03-27T14:56:28.341Z,4.03
2023-03-27T14:59:01.962Z,5.38
2023-03-27T15:01:31.978Z,4.30
2023-03-27T15:04:02.893Z,5.68
2023-03-27T15:06:36.600Z,3.60
2023-03-27T15:09:14.474Z,5.35
2023-03-27T15:11:44.468Z,4.63
2023-03-27T15:14:20.759Z,4.53
2023-03-27T15:16:55.132Z,2.83
2023-03-27T15:19:32.945Z,5.77
2023-03-27T15:22:23.211Z,3.60
2023-03-27T15:24:56.438Z,4.38
2023-03-27T15:27:30.565Z,2.85
2023-03-27T15:30:19.238Z,3.58
2023-03-27T15:32:52.419Z,4.57
2023-03-27T15:35:27.126Z,4.88
2023-03-27T15:37:54.365Z,3.58
2023-03-27T15:40:33.015Z,3.10
2023-03-27T15:43:05.641Z,9.05
2023-03-27T15:45:57.062Z,4.53
2023-03-27T15:48:32.404Z,3.17
2023-03-27T15:51:05.012Z,4.45
2023-03-27T15:53:34.568Z,5.97
2023-03-27T15:56:06.546Z,6.22
2023-03-27T15:58:52.443Z,5.67
2023-03-27T16:01:29.025Z,5.38
2023-03-27T16:04:00.574Z,7.75
2023-03-27T16:06:36.638Z,4.63
2023-03-27T16:09:05.924Z,16.15
2023-03-27T16:11:45.864Z,11.93
2023-03-27T16:14:28.663Z,10.60
2023-03-27T16:17:22.491Z,9.23
2023-03-27T16:19:54.866Z,7.88
2023-03-27T16:22:23.959Z,10.73
2023-03-27T16:24:52.490Z,29.17
2023-03-27T16:27:23.014Z,52.35
2023-03-27T16:29:51.499Z,40.05
2023-03-27T16:32:20.199Z,14.80
2023-03-27T16:34:47.828Z,10.88
2023-03-27T16:37:15.851Z,7.43
2023-03-27T16:39:43.300Z,6.90
2023-03-27T16:42:25.885Z,8.27
2023-03-27T16:44:55.382Z,11.15
2023-03-27T16:47:23.458Z,5.63
2023-03-27T16:50:07.338Z,7.53
2023-03-27T16:52:36.708Z,8.23
2023-03-27T16:55:07.225Z,5.32
2023-03-27T16:57:34.728Z,12.13
2023-03-27T17:00:05.408Z,5.60
2023-03-27T17:02:34.663Z,7.03
2023-03-27T17:05:01.673Z,6.97
2023-03-27T17:07:28.775Z,7.22
2023-03-27T17:09:55.722Z,7.43
2023-03-27T17:12:22.405Z,6.20
2023-03-27T17:14:53.806Z,7.47
2023-03-27T17:17:22.663Z,6.20
2023-03-27T17:19:49.367Z,6.50
2023-03-27T17:22:21.607Z,6.00
2023-03-27T17:24:56.683Z,7.82
2023-03-27T17:27:26.718Z,11.00
2023-03-27T17:29:56.436Z,7.80
2023-03-27T17:32:26.823Z,15.52
2023-03-27T17:34:56.181Z,7.90
2023-03-27T17:37:27.330Z,6.65
2023-03-27T17:39:54.825Z,8.27
2023-03-27T17:42:21.685Z,7.75
2023-03-27T17:44:48.339Z,6.93
2023-03-27T17:47:14.969Z,5.25
2023-03-27T17:49:43.252Z,6.25
2023-03-27T17:52:14.875Z,10.10
2023-03-27T17:54:43.972Z,7.35
2023-03-27T17:57:10.800Z,7.05
2023-03-27T17:59:38.479Z,8.80
2023-03-27T18:02:05.373Z,5.53
2023-03-27T18:04:36.536Z,7.30
2023-03-27T18:07:05.457Z,10.30
2023-03-27T18:09:32.469Z,10.52
2023-03-27T18:11:59.021Z,5.93
2023-03-27T18:14:25.648Z,3.97
2023-03-27T18:16:52.200Z,6.60
2023-03-27T18:19:18.823Z,10.80
2023-03-27T18:21:47.874Z,9.50
2023-03-27T18:24:14.457Z,13.02
2023-03-27T18:26:43.253Z,8.13
2023-03-27T18:29:11.001Z,8.47
2023-03-27T18:31:39.930Z,9.63
2023-03-27T18:34:09.545Z,8.30
2023-03-27T18:36:38.618Z,8.18
2023-03-27T18:39:06.701Z,7.22
2023-03-27T18:41:36.364Z,8.53
2023-03-27T18:44:05.484Z,9.95
2023-03-27T18:46:34.154Z,8.07
2023-03-27T18:49:10.260Z,7.18
2023-03-27T18:51:49.104Z,6.18
2023-03-27T18:54:15.842Z,8.03
2023-03-27T18:56:44.804Z,8.45
2023-03-27T18:59:14.473Z,7.47
2023-03-27T19:01:41.261Z,5.65
2023-03-27T19:04:09.822Z,5.50
2023-03-27T19:06:39.099Z,4.77
2023-03-27T19:09:05.754Z,4.10
2023-03-27T19:11:32.499Z,4.22
2023-03-27T19:13:59.042Z,4.03
2023-03-27T19:16:27.985Z,7.45
2023-03-27T19:18:57.096Z,4.17
2023-03-27T19:21:25.912Z,5.50
2023-03-27T19:23:54.874Z,3.75
2023-03-27T19:26:21.611Z,4.60
2023-03-27T19:28:48.195Z,4.72
2023-03-27T19:31:17.602Z,5.10
2023-03-27T19:33:44.311Z,5.80
2023-03-27T19:36:13.450Z,7.70
2023-03-27T19:38:45.031Z,6.38
2023-03-27T19:41:11.819Z,3.72
2023-03-27T19:43:41.012Z,4.33
2023-03-27T19:46:16.528Z,3.53
2023-03-27T19:48:49.806Z,4.10
2023-03-27T19:51:19.403Z,4.75
2023-03-27T19:53:46.691Z,3.72
2023-03-27T19:56:13.472Z,3.40
2023-03-27T19:58:40.334Z,3.85
2023-03-27T20:01:07.171Z,3.63
2023-03-27T20:03:38.500Z,3.83
2023-03-27T20:06:12.286Z,4.93
2023-03-27T20:08:40.953Z,3.83
2023-03-27T20:11:08.048Z,3.05
2023-03-27T20:13:52.956Z,3.33
2023-03-27T20:16:23.812Z,4.40
2023-03-27T20:19:03.884Z,3.88
2023-03-27T20:21:37.655Z,3.43
2023-03-27T20:24:05.833Z,3.65
2023-03-27T20:26:39.171Z,4.28
2023-03-27T20:29:11.276Z,4.30
2023-03-27T20:31:43.733Z,4.28
2023-03-27T20:34:10.492Z,4.17
2023-03-27T20:36:40.483Z,3.97
2023-03-27T20:39:08.218Z,3.08
2023-03-27T20:41:39.050Z,3.03
2023-03-27T20:44:17.848Z,3.20
2023-03-27T20:46:51.112Z,3.90
2023-03-27T20:52:00.923Z,4.97
2023-03-27T20:54:29.782Z,3.25
2023-03-27T20:56:56.588Z,3.50
2023-03-27T20:59:23.269Z,2.70
2023-03-27T21:01:49.813Z,4.43
2023-03-27T21:04:18.530Z,3.65
2023-03-27T21:06:48.183Z,4.38
2023-03-27T21:09:14.779Z,3.20
2023-03-27T21:11:44.206Z,5.97
2023-03-27T21:14:13.748Z,4.95
2023-03-27T21:16:40.471Z,3.17
2023-03-27T21:19:07.082Z,3.33
2023-03-27T21:21:33.688Z,3.28
2023-03-27T21:24:00.298Z,4.47
2023-03-27T21:26:26.929Z,5.25
2023-03-27T21:28:53.685Z,4.10
2023-03-27T21:31:23.065Z,3.63
2023-03-27T21:33:49.796Z,3.95
2023-03-27T21:36:17.739Z,2.93
2023-03-27T21:38:44.396Z,4.15
2023-03-27T21:41:16.803Z,5.85
2023-03-27T21:43:44.350Z,3.72
2023-03-27T21:46:11.242Z,3.55
2023-03-27T21:48:40.502Z,3.97
2023-03-27T21:51:10.351Z,5.25
2023-03-27T21:53:37.079Z,5.25
2023-03-27T21:56:06.393Z,8.88
2023-03-27T21:58:37.964Z,9.52
2023-03-27T22:01:04.889Z,4.67
2023-03-27T22:03:31.570Z,6.07
2023-03-27T22:06:12.153Z,5.25
2023-03-27T22:08:40.832Z,6.78
2023-03-27T22:11:11.706Z,7.15
2023-03-27T22:13:39.211Z,5.03
2023-03-27T22:16:14.672Z,4.75
2023-03-27T22:18:44.438Z,8.35
2023-03-27T22:21:15.588Z,5.63
2023-03-27T22:23:42.816Z,3.95
2023-03-27T22:26:09.545Z,6.60
2023-03-27T22:28:38.514Z,6.00
2023-03-27T22:31:05.638Z,5.53
2023-03-27T22:33:32.281Z,4.78
2023-03-27T22:36:01.599Z,4.75
2023-03-27T22:38:35.243Z,5.43
2023-03-27T22:41:05.507Z,7.05
2023-03-27T22:43:32.212Z,6.55
2023-03-27T22:46:14.677Z,4.35
2023-03-27T22:48:42.082Z,4.07
2023-03-27T22:51:10.834Z,2.93
2023-03-27T22:53:37.982Z,3.47
2023-03-27T22:56:08.915Z,4.57
2023-03-27T22:58:35.625Z,3.95
2023-03-27T23:01:09.164Z,5.22
2023-03-27T23:03:35.992Z,2.97
2023-03-27T23:06:02.946Z,4.35
2023-03-27T23:08:32.979Z,5.80
2023-03-27T23:11:02.547Z,3.15
2023-03-27T23:13:33.335Z,2.78
2023-03-27T23:16:02.609Z,3.07
2023-03-27T23:18:31.598Z,4.65
2023-03-27T23:21:06.366Z,3.67
2023-03-27T23:23:34.817Z,4.25
2023-03-27T23:26:03.048Z,3.40
2023-03-27T23:28:32.762Z,4.00
2023-03-27T23:31:05.387Z,4.35
2023-03-27T23:33:37.412Z,4.32
2023-03-27T23:36:24.340Z,5.47
2023-03-27T23:38:51.645Z,3.05
2023-03-27T23:41:21.484Z,3.93
2023-03-27T23:43:48.757Z,4.95
2023-03-27T23:46:15.881Z,4.97
2023-03-27T23:48:44.115Z,4.05
2023-03-27T23:51:12.532Z,3.95
2023-03-27T23:53:39.495Z,4.27
2023-03-27T23:56:08.830Z,3.42
2023-03-27T23:58:37.262Z,3.42
